Terminal Aerodrome Forecast
Issued by NWS Sioux Falls, SD

Home | Current Version | Previous Version | Text Only | Print | Product List | Glossary On
Versions: 1 2 3 4 5 6 7 8 9 10 11 12 13
000
FTUS43 KFSD 030523
TAFFSD
TAF
KFSD 030523Z 0306/0406 17008KT P6SM SCT080
     FM030800 16007KT P6SM BKN070
     FM031000 16011KT P6SM SCT010 WS010/20040KT
     FM031400 17013G19KT P6SM BKN012
     FM031900 18016G23KT P6SM SCT018
     FM040100 17011KT P6SM SKC=

USA.gov is the U.S. government's official web portal to all federal, state and local government web resources and services.